Time;durP1;ratioP1;P1;durP2;ratioP2;P2;SDS_P1;SDS_P2;PMS_P1;PMS_P2;Temp;Humidity;BMP_temperature;BMP_pressure;BME280_temperature;BME280_humidity;BME280_pressure;Samples;Min_cycle;Max_cycle;Signal;HPM_P1;HPM_P2
2023/02/04 00:00:37;;;;;;;3.67;2.40;;;;;;;;;;6216792;23;20023;-84
2023/02/04 00:03:09;;;;;;;2.97;2.20;;;;;;;;;;6254606;23;20012;-85
2023/02/04 00:05:38;;;;;;;5.85;2.75;;;;;;;;;;6215407;23;20020;-85
2023/02/04 00:08:05;;;;;;;2.65;2.17;;;;;;;;;;6218359;23;20016;-85
2023/02/04 00:10:33;;;;;;;5.72;2.00;;;;;;;;;;6216773;23;20016;-85
2023/02/04 00:13:02;;;;;;;3.92;2.30;;;;;;;;;;6245408;23;20023;-85
2023/02/04 00:15:32;;;;;;;4.68;2.08;;;;;;;;;;6214988;23;20027;-85
2023/02/04 00:18:02;;;;;;;2.95;2.03;;;;;;;;;;6243836;23;20035;-85
2023/02/04 00:20:30;;;;;;;4.18;2.13;;;;;;;;;;6215638;23;20013;-85
2023/02/04 00:23:00;;;;;;;3.17;2.67;;;;;;;;;;6218044;23;20016;-85
2023/02/04 00:25:27;;;;;;;4.70;2.33;;;;;;;;;;6243615;23;20460;-85
2023/02/04 00:27:54;;;;;;;3.42;2.05;;;;;;;;;;6216443;23;20031;-83
2023/02/04 00:30:26;;;;;;;5.85;2.40;;;;;;;;;;6227038;23;20016;-84
2023/02/04 00:32:55;;;;;;;2.47;2.05;;;;;;;;;;6218185;23;20027;-85
2023/02/04 00:35:22;;;;;;;2.70;2.10;;;;;;;;;;6190062;23;20020;-84
2023/02/04 00:37:51;;;;;;;2.70;1.70;;;;;;;;;;6218150;23;20471;-84
2023/02/04 00:40:19;;;;;;;4.57;2.85;;;;;;;;;;6188555;23;20461;-84
2023/02/04 00:42:46;;;;;;;4.38;2.53;;;;;;;;;;6219102;23;20016;-84
2023/02/04 00:45:13;;;;;;;3.58;1.88;;;;;;;;;;6216286;23;20020;-85
2023/02/04 00:47:41;;;;;;;8.15;2.22;;;;;;;;;;6190943;23;20027;-84
2023/02/04 00:50:08;;;;;;;4.80;3.20;;;;;;;;;;6216394;23;20012;-84
2023/02/04 00:52:36;;;;;;;4.13;2.45;;;;;;;;;;6218475;23;20034;-84
2023/02/04 00:55:06;;;;;;;6.40;2.10;;;;;;;;;;6217125;23;20016;-84
2023/02/04 00:57:38;;;;;;;3.13;2.15;;;;;;;;;;6191973;23;20021;-84
2023/02/04 01:00:06;;;;;;;4.43;2.17;;;;;;;;;;6215209;23;20471;-84
2023/02/04 01:02:33;;;;;;;5.13;2.65;;;;;;;;;;6194153;23;20020;-84
2023/02/04 01:05:01;;;;;;;6.50;2.90;;;;;;;;;;6191936;23;20020;-84
2023/02/04 01:07:31;;;;;;;2.28;1.90;;;;;;;;;;6254384;23;20027;-84
2023/02/04 01:10:01;;;;;;;2.80;1.98;;;;;;;;;;6189906;23;20040;-84
2023/02/04 01:12:30;;;;;;;2.30;1.90;;;;;;;;;;6218195;23;20016;-84
2023/02/04 01:14:57;;;;;;;4.85;2.15;;;;;;;;;;6191641;23;20020;-84
2023/02/04 01:17:27;;;;;;;2.70;2.22;;;;;;;;;;6228478;23;20325;-84
2023/02/04 01:19:56;;;;;;;4.68;1.80;;;;;;;;;;6197957;23;20023;-84
2023/02/04 01:22:24;;;;;;;5.50;2.85;;;;;;;;;;6209566;23;20015;-84
2023/02/04 01:24:51;;;;;;;2.08;1.88;;;;;;;;;;6233749;23;20030;-84
2023/02/04 01:27:38;;;;;;;3.97;2.45;;;;;;;;;;6263128;23;20038;-84
2023/02/04 01:30:06;;;;;;;3.08;2.20;;;;;;;;;;6215754;23;20020;-84
2023/02/04 01:32:37;;;;;;;6.78;2.65;;;;;;;;;;6190834;23;20020;-84
2023/02/04 01:35:05;;;;;;;9.27;2.38;;;;;;;;;;6215826;23;20325;-85
2023/02/04 01:37:33;;;;;;;7.38;2.92;;;;;;;;;;6216592;23;20314;-84
2023/02/04 01:40:00;;;;;;;6.38;2.20;;;;;;;;;;6216215;23;20020;-84
2023/02/04 01:42:28;;;;;;;5.60;2.90;;;;;;;;;;6191748;23;20024;-84
2023/02/04 01:44:56;;;;;;;6.18;2.45;;;;;;;;;;6225166;23;20016;-83
2023/02/04 01:47:24;;;;;;;5.18;2.47;;;;;;;;;;6191572;23;20024;-84
2023/02/04 01:49:53;;;;;;;9.23;3.63;;;;;;;;;;6190613;23;20016;-84
2023/02/04 01:52:21;;;;;;;5.68;3.03;;;;;;;;;;6244324;23;20016;-84
2023/02/04 01:54:49;;;;;;;5.45;2.58;;;;;;;;;;6252667;23;20012;-84
2023/02/04 01:57:19;;;;;;;10.50;4.03;;;;;;;;;;6191466;23;20027;-84
2023/02/04 01:59:51;;;;;;;12.68;3.60;;;;;;;;;;6214266;23;20027;-84
2023/02/04 02:02:42;;;;;;;5.82;4.03;;;;;;;;;;6254291;23;20352;-83
2023/02/04 02:05:11;;;;;;;6.75;3.28;;;;;;;;;;6241455;23;20019;-84
2023/02/04 02:07:40;;;;;;;7.43;3.58;;;;;;;;;;6217918;23;20016;-85
2023/02/04 02:10:09;;;;;;;7.40;4.05;;;;;;;;;;6214826;23;20012;-84
2023/02/04 02:12:39;;;;;;;11.88;3.42;;;;;;;;;;6226779;23;20314;-84
2023/02/04 02:15:08;;;;;;;10.27;3.85;;;;;;;;;;6190097;23;20483;-84
2023/02/04 02:17:35;;;;;;;12.27;3.40;;;;;;;;;;6227472;23;20019;-85
2023/02/04 02:20:06;;;;;;;11.05;4.53;;;;;;;;;;6189886;23;20447;-84
2023/02/04 02:22:37;;;;;;;12.65;3.22;;;;;;;;;;6227477;23;20019;-85
2023/02/04 02:25:10;;;;;;;6.82;2.83;;;;;;;;;;6250564;23;20023;-84
2023/02/04 02:27:37;;;;;;;7.45;3.50;;;;;;;;;;6216618;23;20012;-84
2023/02/04 02:30:09;;;;;;;6.43;2.90;;;;;;;;;;6189964;23;20020;-85
2023/02/04 02:32:38;;;;;;;9.55;4.35;;;;;;;;;;6252072;23;20012;-85
2023/02/04 02:35:10;;;;;;;6.80;3.50;;;;;;;;;;6222209;23;20008;-85
2023/02/04 02:37:37;;;;;;;12.02;3.53;;;;;;;;;;6216987;23;20016;-84
2023/02/04 02:40:07;;;;;;;14.80;5.25;;;;;;;;;;6189560;23;20020;-85
2023/02/04 02:42:36;;;;;;;10.93;4.28;;;;;;;;;;6226537;23;20334;-84
2023/02/04 02:45:13;;;;;;;5.63;3.80;;;;;;;;;;6188946;23;20027;-85
2023/02/04 02:47:40;;;;;;;10.98;2.53;;;;;;;;;;6253470;23;20019;-84
2023/02/04 02:50:11;;;;;;;6.97;3.10;;;;;;;;;;6215062;23;20456;-84
2023/02/04 02:52:40;;;;;;;9.52;3.60;;;;;;;;;;6191282;23;20027;-84
2023/02/04 02:55:14;;;;;;;11.30;4.43;;;;;;;;;;6213614;23;20016;-83
2023/02/04 02:57:44;;;;;;;9.38;3.20;;;;;;;;;;6192017;23;20444;-84
2023/02/04 03:00:16;;;;;;;6.55;3.63;;;;;;;;;;6189378;23;20016;-84
2023/02/04 03:02:44;;;;;;;7.60;3.15;;;;;;;;;;6190978;23;20020;-84
2023/02/04 03:05:12;;;;;;;8.38;4.30;;;;;;;;;;6214871;23;20012;-84
2023/02/04 03:07:39;;;;;;;7.93;3.90;;;;;;;;;;6190991;23;20012;-84
2023/02/04 03:10:10;;;;;;;10.30;4.30;;;;;;;;;;6225716;23;20031;-84
2023/02/04 03:12:40;;;;;;;10.85;6.18;;;;;;;;;;6252451;23;20012;-84
2023/02/04 03:15:09;;;;;;;8.20;3.85;;;;;;;;;;6215522;23;20012;-83
2023/02/04 03:17:36;;;;;;;12.15;3.67;;;;;;;;;;6190126;23;20016;-83
2023/02/04 03:20:06;;;;;;;5.53;3.55;;;;;;;;;;6215757;23;20012;-84
2023/02/04 03:22:34;;;;;;;7.25;5.15;;;;;;;;;;6192358;23;20027;-83
2023/02/04 03:25:04;;;;;;;15.30;4.68;;;;;;;;;;6189649;23;20027;-84
2023/02/04 03:27:36;;;;;;;7.80;5.22;;;;;;;;;;6226741;23;20023;-84
2023/02/04 03:30:03;;;;;;;12.05;4.63;;;;;;;;;;6188501;23;20020;-83
2023/02/04 03:32:35;;;;;;;9.52;3.92;;;;;;;;;;6190713;23;20360;-84
2023/02/04 03:35:02;;;;;;;5.13;3.70;;;;;;;;;;6248614;23;20019;-84
2023/02/04 03:37:31;;;;;;;7.03;4.07;;;;;;;;;;6192101;23;20016;-84
2023/02/04 03:40:01;;;;;;;9.18;3.90;;;;;;;;;;6213101;23;20027;-84
2023/02/04 03:42:30;;;;;;;9.60;4.15;;;;;;;;;;6191744;23;20016;-84
2023/02/04 03:45:00;;;;;;;6.82;3.13;;;;;;;;;;6214919;23;20379;-84
2023/02/04 03:47:30;;;;;;;8.90;3.70;;;;;;;;;;6242491;23;20012;-84
2023/02/04 03:50:05;;;;;;;9.88;3.65;;;;;;;;;;6225856;23;20409;-83
2023/02/04 03:52:32;;;;;;;7.28;4.80;;;;;;;;;;6192160;23;20039;-84
2023/02/04 03:54:59;;;;;;;7.38;4.55;;;;;;;;;;6249014;23;20016;-84
2023/02/04 03:57:26;;;;;;;11.00;2.83;;;;;;;;;;6241802;23;20016;-84
2023/02/04 03:59:53;;;;;;;8.70;4.97;;;;;;;;;;6242208;23;20016;-84
2023/02/04 04:02:21;;;;;;;16.55;4.90;;;;;;;;;;6245066;23;20016;-84
2023/02/04 04:04:48;;;;;;;7.18;3.53;;;;;;;;;;6244481;23;20013;-84
2023/02/04 04:07:19;;;;;;;5.03;2.80;;;;;;;;;;6217484;23;20511;-84
2023/02/04 04:09:48;;;;;;;4.55;2.33;;;;;;;;;;6252273;23;20340;-84
2023/02/04 04:12:16;;;;;;;4.65;3.00;;;;;;;;;;6193306;23;20020;-84
2023/02/04 04:14:43;;;;;;;3.90;2.35;;;;;;;;;;6217703;23;20023;-81
2023/02/04 04:17:10;;;;;;;2.72;2.15;;;;;;;;;;6211508;23;20023;-85
2023/02/04 04:19:37;;;;;;;6.55;3.63;;;;;;;;;;6210327;23;20027;-85
2023/02/04 04:22:07;;;;;;;8.15;3.20;;;;;;;;;;6214886;23;20013;-85
2023/02/04 04:24:40;;;;;;;4.57;3.33;;;;;;;;;;6222931;23;20013;-85
2023/02/04 04:27:12;;;;;;;5.60;3.10;;;;;;;;;;6213819;23;20020;-85
2023/02/04 04:29:39;;;;;;;12.27;4.30;;;;;;;;;;6211509;23;20013;-85
2023/02/04 04:32:08;;;;;;;7.80;3.58;;;;;;;;;;6214464;23;20020;-85
2023/02/04 04:34:35;;;;;;;7.13;3.40;;;;;;;;;;6212915;23;20349;-84
2023/02/04 04:37:02;;;;;;;5.40;3.58;;;;;;;;;;6212760;23;20017;-85
2023/02/04 04:39:30;;;;;;;12.38;4.88;;;;;;;;;;6187402;23;20016;-85
2023/02/04 04:41:58;;;;;;;6.90;4.75;;;;;;;;;;6186689;23;20020;-85
2023/02/04 04:44:25;;;;;;;9.82;4.80;;;;;;;;;;6213247;23;20345;-85
2023/02/04 04:46:53;;;;;;;9.55;3.97;;;;;;;;;;6211036;23;20016;-85
2023/02/04 04:49:20;;;;;;;10.07;4.43;;;;;;;;;;6213630;23;20009;-85
2023/02/04 04:51:47;;;;;;;16.80;6.43;;;;;;;;;;6211999;23;20017;-85
2023/02/04 04:54:17;;;;;;;7.63;5.03;;;;;;;;;;6187372;23;20017;-85
2023/02/04 04:56:44;;;;;;;12.32;5.68;;;;;;;;;;6213760;23;20352;-85
2023/02/04 04:59:12;;;;;;;8.00;3.92;;;;;;;;;;6186318;23;20040;-85
2023/02/04 05:01:42;;;;;;;10.75;4.32;;;;;;;;;;6224476;23;20016;-85
2023/02/04 05:04:09;;;;;;;12.52;5.68;;;;;;;;;;6212596;23;20013;-85
2023/02/04 05:06:36;;;;;;;6.40;3.53;;;;;;;;;;6212163;23;20016;-85
2023/02/04 05:09:04;;;;;;;13.38;5.68;;;;;;;;;;6186193;23;20016;-84
2023/02/04 05:11:31;;;;;;;11.15;4.57;;;;;;;;;;6211279;23;20027;-85
2023/02/04 05:13:58;;;;;;;12.45;4.07;;;;;;;;;;6212553;23;20023;-85
2023/02/04 05:16:26;;;;;;;10.43;4.80;;;;;;;;;;6211559;23;20016;-85
2023/02/04 05:18:58;;;;;;;15.85;4.38;;;;;;;;;;6223729;23;20013;-85
2023/02/04 05:21:26;;;;;;;13.60;5.30;;;;;;;;;;6212729;23;20021;-85
2023/02/04 05:23:53;;;;;;;14.75;5.90;;;;;;;;;;6211403;23;20016;-85
2023/02/04 05:26:20;;;;;;;8.48;4.43;;;;;;;;;;6186029;23;20496;-85
2023/02/04 05:28:49;;;;;;;6.90;5.00;;;;;;;;;;6214924;23;20013;-85
2023/02/04 05:31:19;;;;;;;8.63;3.80;;;;;;;;;;6212301;23;20027;-85
2023/02/04 05:33:47;;;;;;;8.05;5.57;;;;;;;;;;6213151;23;20027;-85
2023/02/04 05:36:14;;;;;;;10.73;4.97;;;;;;;;;;6215727;23;20023;-84
2023/02/04 05:38:42;;;;;;;12.80;3.67;;;;;;;;;;6186892;23;20468;-85
2023/02/04 05:41:09;;;;;;;12.63;4.35;;;;;;;;;;6187739;23;20024;-85
2023/02/04 05:43:36;;;;;;;13.68;4.22;;;;;;;;;;6212188;23;20024;-85
2023/02/04 05:46:03;;;;;;;10.45;5.65;;;;;;;;;;6186591;23;20028;-85
2023/02/04 05:48:33;;;;;;;13.20;4.15;;;;;;;;;;6213121;23;20009;-85
2023/02/04 05:51:04;;;;;;;10.32;4.13;;;;;;;;;;6213205;23;20020;-84
2023/02/04 05:53:31;;;;;;;11.80;4.25;;;;;;;;;;6212899;23;20017;-85
2023/02/04 05:56:03;;;;;;;10.88;4.43;;;;;;;;;;6218028;23;20491;-85
2023/02/04 05:58:32;;;;;;;16.50;4.75;;;;;;;;;;6214713;23;20016;-85
2023/02/04 06:01:00;;;;;;;7.80;3.50;;;;;;;;;;6212533;23;20016;-85
2023/02/04 06:03:30;;;;;;;13.35;5.30;;;;;;;;;;6214533;23;20467;-85
2023/02/04 06:05:57;;;;;;;19.77;5.60;;;;;;;;;;6212753;23;20016;-85
2023/02/04 06:08:26;;;;;;;7.85;4.65;;;;;;;;;;6219575;23;20023;-85
2023/02/04 06:10:53;;;;;;;7.03;3.40;;;;;;;;;;6218407;23;20013;-85
2023/02/04 06:13:20;;;;;;;9.13;4.25;;;;;;;;;;6230596;23;20021;-85
2023/02/04 06:15:47;;;;;;;15.52;4.75;;;;;;;;;;6220502;23;20021;-86
2023/02/04 06:18:14;;;;;;;6.72;4.25;;;;;;;;;;6193389;23;20024;-85
2023/02/04 06:20:42;;;;;;;9.93;4.45;;;;;;;;;;6216343;23;20405;-85
2023/02/04 06:23:09;;;;;;;7.93;3.70;;;;;;;;;;6216615;23;20210;-85
2023/02/04 06:25:37;;;;;;;13.75;5.00;;;;;;;;;;6215057;23;20024;-85
2023/02/04 06:28:07;;;;;;;10.50;4.50;;;;;;;;;;6226458;23;20017;-85
2023/02/04 06:30:36;;;;;;;9.40;4.22;;;;;;;;;;6217452;23;20015;-85
2023/02/04 06:33:03;;;;;;;10.18;4.20;;;;;;;;;;6226284;23;20024;-86
2023/02/04 06:35:30;;;;;;;10.13;6.22;;;;;;;;;;6228145;23;20011;-86
2023/02/04 06:37:57;;;;;;;12.55;4.32;;;;;;;;;;6221676;23;20023;-86
2023/02/04 06:40:29;;;;;;;5.97;4.15;;;;;;;;;;6219982;23;20013;-86
2023/02/04 06:42:58;;;;;;;15.77;5.90;;;;;;;;;;6211044;23;20024;-86
2023/02/04 06:45:28;;;;;;;5.07;3.63;;;;;;;;;;6218664;23;20013;-86
2023/02/04 06:47:55;;;;;;;8.98;4.00;;;;;;;;;;6219429;23;20016;-86
2023/02/04 06:50:22;;;;;;;7.68;3.10;;;;;;;;;;6208859;23;20016;-86
2023/02/04 06:52:52;;;;;;;5.32;3.78;;;;;;;;;;6186549;23;20017;-85
2023/02/04 07:02:10;;;;;;;13.18;4.47;;;;;;;;;;6212943;23;20043;-91
2023/02/04 07:04:42;;;;;;;12.05;5.95;;;;;;;;;;6192266;23;20016;-91
2023/02/04 07:07:10;;;;;;;13.50;4.57;;;;;;;;;;6193774;23;20020;-88
2023/02/04 07:09:39;;;;;;;10.32;6.43;;;;;;;;;;6192997;23;20020;-90
2023/02/04 07:12:07;;;;;;;16.13;6.82;;;;;;;;;;6192050;23;20020;-91
2023/02/04 07:14:35;;;;;;;18.73;5.00;;;;;;;;;;6192781;23;20042;-90
2023/02/04 07:17:05;;;;;;;12.82;4.35;;;;;;;;;;6192414;23;20347;-89
2023/02/04 07:19:34;;;;;;;12.52;4.60;;;;;;;;;;6192237;23;20193;-91
2023/02/04 07:22:03;;;;;;;8.23;3.40;;;;;;;;;;6217793;23;20012;-90
2023/02/04 07:24:33;;;;;;;15.00;4.43;;;;;;;;;;6219139;23;20213;-93
2023/02/04 07:27:01;;;;;;;8.93;3.60;;;;;;;;;;6193641;23;20012;-91
2023/02/04 07:29:28;;;;;;;10.95;3.30;;;;;;;;;;6194078;23;20020;-89
2023/02/04 07:31:58;;;;;;;8.90;5.22;;;;;;;;;;6193628;23;20463;-90
2023/02/04 07:34:30;;;;;;;12.48;4.78;;;;;;;;;;6194402;23;20026;-90
2023/02/04 07:37:07;;;;;;;10.98;3.97;;;;;;;;;;6194734;23;20023;-91
2023/02/04 07:39:37;;;;;;;12.15;4.38;;;;;;;;;;6195982;23;20027;-90
2023/02/04 07:42:05;;;;;;;7.20;4.40;;;;;;;;;;6220584;23;20019;-90
2023/02/04 07:44:42;;;;;;;11.43;5.65;;;;;;;;;;6194223;23;20587;-89
2023/02/04 07:47:10;;;;;;;11.15;4.90;;;;;;;;;;6197272;23;20023;-89
2023/02/04 07:49:38;;;;;;;12.05;5.57;;;;;;;;;;6203968;23;20019;-90
2023/02/04 07:52:08;;;;;;;15.85;5.30;;;;;;;;;;6220607;23;20012;-90
2023/02/04 07:54:36;;;;;;;11.02;4.50;;;;;;;;;;6197232;23;20016;-89
2023/02/04 07:57:06;;;;;;;5.40;4.07;;;;;;;;;;6197698;23;20023;-91
2023/02/04 07:59:33;;;;;;;9.15;4.45;;;;;;;;;;6191814;23;20359;-92
2023/02/04 08:02:02;;;;;;;11.07;6.70;;;;;;;;;;6245747;23;20171;-90
2023/02/04 08:04:29;;;;;;;5.88;4.18;;;;;;;;;;6216928;23;20024;-90
2023/02/04 08:07:04;;;;;;;9.02;3.83;;;;;;;;;;6228637;23;20481;-89
2023/02/04 08:09:34;;;;;;;16.42;5.53;;;;;;;;;;6217389;23;20012;-89
2023/02/04 08:12:04;;;;;;;14.15;5.65;;;;;;;;;;6192094;23;20039;-89
2023/02/04 08:14:32;;;;;;;7.13;4.10;;;;;;;;;;6191552;23;20036;-89
2023/02/04 08:17:02;;;;;;;12.95;6.50;;;;;;;;;;6191085;23;20779;-90
2023/02/04 08:19:30;;;;;;;16.10;5.28;;;;;;;;;;6217872;23;20556;-90
2023/02/04 08:21:57;;;;;;;8.20;4.40;;;;;;;;;;6218761;23;20016;-91
2023/02/04 08:24:35;;;;;;;13.98;6.55;;;;;;;;;;6217663;23;20352;-90
2023/02/04 08:27:04;;;;;;;11.32;5.10;;;;;;;;;;6192670;23;20506;-89
2023/02/04 08:29:32;;;;;;;15.32;5.38;;;;;;;;;;6218464;23;20083;-89
2023/02/04 08:32:08;;;;;;;9.93;4.43;;;;;;;;;;6195065;23;20020;-90
2023/02/04 08:34:36;;;;;;;10.48;4.45;;;;;;;;;;6192485;23;20020;-90
2023/02/04 08:37:04;;;;;;;16.23;6.95;;;;;;;;;;6193580;23;20024;-89
2023/02/04 08:39:32;;;;;;;11.00;4.60;;;;;;;;;;6217568;23;20008;-91
2023/02/04 08:42:04;;;;;;;13.70;5.57;;;;;;;;;;6195259;23;20023;-92
2023/02/04 08:44:35;;;;;;;11.55;5.38;;;;;;;;;;6195534;23;20042;-90
2023/02/04 08:47:04;;;;;;;8.65;4.30;;;;;;;;;;6194120;23;20031;-91
2023/02/04 08:49:34;;;;;;;8.27;4.57;;;;;;;;;;6192069;23;20125;-91
2023/02/04 08:52:03;;;;;;;10.13;4.63;;;;;;;;;;6194314;23;20016;-90
2023/02/04 08:54:38;;;;;;;17.02;5.32;;;;;;;;;;6195021;23;20012;-89
2023/02/04 08:57:19;;;;;;;14.48;5.13;;;;;;;;;;6195400;23;20024;-90
2023/02/04 08:59:46;;;;;;;7.70;4.25;;;;;;;;;;6228038;23;20008;-90
2023/02/04 09:02:14;;;;;;;13.02;4.88;;;;;;;;;;6196799;23;20020;-91
2023/02/04 09:04:42;;;;;;;13.00;6.28;;;;;;;;;;6222566;23;20026;-93
2023/02/04 09:07:12;;;;;;;20.08;6.38;;;;;;;;;;6195563;23;20016;-91
2023/02/04 09:09:42;;;;;;;8.63;4.68;;;;;;;;;;6193588;23;20351;-89
2023/02/04 09:12:15;;;;;;;13.30;3.40;;;;;;;;;;6196209;23;20012;-90
2023/02/04 09:14:45;;;;;;;11.33;4.37;;;;;;;;;;6197490;23;20016;-92
2023/02/04 09:17:18;;;;;;;9.43;3.75;;;;;;;;;;6197480;23;20030;-90
2023/02/04 09:19:46;;;;;;;12.70;5.60;;;;;;;;;;6192954;23;20012;-91
2023/02/04 09:22:14;;;;;;;10.77;4.85;;;;;;;;;;6197237;23;20027;-90
2023/02/04 09:24:44;;;;;;;6.65;3.28;;;;;;;;;;6174066;23;20022;-91
2023/02/04 09:27:15;;;;;;;9.98;3.28;;;;;;;;;;6198469;23;20031;-92
2023/02/04 09:29:47;;;;;;;18.42;6.75;;;;;;;;;;6200725;23;20024;-90
2023/02/04 09:32:37;;;;;;;16.73;4.93;;;;;;;;;;6198827;23;20030;-91
2023/02/04 09:35:14;;;;;;;15.60;5.00;;;;;;;;;;6200501;23;20028;-93
2023/02/04 09:37:42;;;;;;;9.77;4.10;;;;;;;;;;6198696;23;20360;-92
2023/02/04 09:40:16;;;;;;;10.77;4.50;;;;;;;;;;6200472;23;20026;-92
2023/02/04 09:42:48;;;;;;;7.88;3.40;;;;;;;;;;6199012;23;20313;-92
2023/02/04 09:45:25;;;;;;;20.45;6.57;;;;;;;;;;6201242;23;20046;-92
2023/02/04 09:47:53;;;;;;;11.93;4.18;;;;;;;;;;6196705;23;20068;-89
2023/02/04 09:50:24;;;;;;;7.55;3.78;;;;;;;;;;6196613;23;20012;-89
2023/02/04 09:52:57;;;;;;;9.68;4.15;;;;;;;;;;6236114;23;20026;-89
2023/02/04 09:55:33;;;;;;;15.82;4.53;;;;;;;;;;6199280;23;20023;-92
2023/02/04 09:58:00;;;;;;;24.10;5.63;;;;;;;;;;6200186;23;20363;-91
2023/02/04 10:00:33;;;;;;;16.23;4.30;;;;;;;;;;6199204;23;20042;-91
2023/02/04 10:03:02;;;;;;;9.95;4.05;;;;;;;;;;6197725;23;20035;-90
2023/02/04 10:05:36;;;;;;;13.35;4.38;;;;;;;;;;6200457;23;20020;-91
2023/02/04 10:08:06;;;;;;;19.30;5.18;;;;;;;;;;6200634;23;20026;-90
2023/02/04 10:10:36;;;;;;;10.10;3.67;;;;;;;;;;6203370;23;20016;-89
2023/02/04 10:13:08;;;;;;;9.80;3.70;;;;;;;;;;6203798;23;20020;-91
2023/02/04 10:42:52;;;;;;;5.07;2.83;;;;;;;;;;6241714;22;20024;-92
2023/02/04 10:45:28;;;;;;;4.25;2.67;;;;;;;;;;6159813;23;20360;-91
2023/02/04 10:47:57;;;;;;;11.13;3.28;;;;;;;;;;6161451;23;20027;-91
2023/02/04 10:50:29;;;;;;;7.00;2.50;;;;;;;;;;6161851;23;20020;-91
2023/02/04 10:54:28;;;;;;;13.95;4.47;;;;;;;;;;6185053;23;20016;-91
2023/02/04 10:55:50;;;;;;;5.45;2.60;;;;;;;;;;6161130;23;20471;-92
2023/02/04 10:58:19;;;;;;;12.77;4.28;;;;;;;;;;6194243;23;20187;-91
2023/02/04 11:00:49;;;;;;;10.10;3.53;;;;;;;;;;6158873;23;20017;-90
2023/02/04 11:03:23;;;;;;;8.13;3.50;;;;;;;;;;6160255;23;20012;-90
2023/02/04 11:05:51;;;;;;;9.77;3.47;;;;;;;;;;6159593;23;20025;-91
2023/02/04 11:08:21;;;;;;;7.03;3.88;;;;;;;;;;6185083;23;20032;-91
2023/02/04 11:10:56;;;;;;;8.35;3.55;;;;;;;;;;6162827;23;20013;-91
2023/02/04 11:13:26;;;;;;;7.30;3.28;;;;;;;;;;6161291;23;20021;-91
2023/02/04 11:16:11;;;;;;;6.53;3.35;;;;;;;;;;6161980;23;20024;-91
2023/02/04 11:18:48;;;;;;;5.95;4.00;;;;;;;;;;6162750;23;20452;-91
2023/02/04 11:21:24;;;;;;;12.55;2.92;;;;;;;;;;6161167;23;20359;-91
2023/02/04 11:23:52;;;;;;;12.52;3.53;;;;;;;;;;6161963;23;20017;-91
2023/02/04 11:26:33;;;;;;;13.68;4.20;;;;;;;;;;6160212;23;20030;-91
2023/02/04 11:29:26;;;;;;;11.32;3.17;;;;;;;;;;6211768;23;20041;-91
2023/02/04 11:32:03;;;;;;;5.95;4.32;;;;;;;;;;6160524;23;20020;-91
2023/02/04 11:34:47;;;;;;;9.73;3.45;;;;;;;;;;6186886;23;20459;-91
2023/02/04 11:37:40;;;;;;;16.75;3.67;;;;;;;;;;6187877;23;20013;-91
2023/02/04 11:40:25;;;;;;;12.05;3.63;;;;;;;;;;6162796;23;20016;-91
2023/02/04 11:43:04;;;;;;;17.38;3.92;;;;;;;;;;6162621;23;20490;-92
2023/02/04 11:45:36;;;;;;;6.30;2.25;;;;;;;;;;6163861;23;20020;-91
2023/02/04 11:48:33;;;;;;;4.88;2.92;;;;;;;;;;6163261;23;20028;-91
2023/02/04 11:51:03;;;;;;;14.95;4.57;;;;;;;;;;6159858;23;20492;-92
2023/02/04 11:53:34;;;;;;;9.63;2.92;;;;;;;;;;6139033;23;20025;-91
2023/02/04 11:56:03;;;;;;;9.73;3.83;;;;;;;;;;6187774;23;20021;-92
2023/02/04 12:01:20;;;;;;;9.98;3.70;;;;;;;;;;6163015;23;20016;-92
2023/02/04 12:21:01;;;;;;;8.85;2.88;;;;;;;;;;6185811;23;20017;-92
2023/02/04 12:27:13;;;;;;;13.38;3.35;;;;;;;;;;6184824;23;20017;-92
2023/02/04 12:35:26;;;;;;;4.95;2.45;;;;;;;;;;6196116;23;20020;-92
2023/02/04 12:40:45;;;;;;;8.77;2.90;;;;;;;;;;6175321;23;20016;-93
2023/02/04 12:43:15;;;;;;;5.43;2.83;;;;;;;;;;6172141;23;20013;-92
2023/02/04 12:48:58;;;;;;;6.47;3.63;;;;;;;;;;6210650;23;20029;-91
2023/02/04 12:51:37;;;;;;;10.32;3.15;;;;;;;;;;6162581;23;20043;-92
2023/02/04 12:54:10;;;;;;;5.93;3.60;;;;;;;;;;6211710;23;20017;-92
2023/02/04 12:59:26;;;;;;;3.70;2.65;;;;;;;;;;6161063;23;20550;-92
2023/02/04 13:01:58;;;;;;;12.98;2.70;;;;;;;;;;6159789;23;20021;-93
2023/02/04 13:10:44;;;;;;;6.40;2.63;;;;;;;;;;6183213;23;20024;-90
2023/02/04 13:13:12;;;;;;;9.38;2.78;;;;;;;;;;6161704;23;20017;-91
2023/02/04 13:21:04;;;;;;;9.15;3.05;;;;;;;;;;6161931;23;20020;-93
2023/02/04 13:26:23;;;;;;;9.20;2.05;;;;;;;;;;6191013;23;20033;-91
2023/02/04 13:28:53;;;;;;;10.30;2.92;;;;;;;;;;6167466;23;20122;-92
2023/02/04 13:31:29;;;;;;;11.00;2.85;;;;;;;;;;6166835;23;20471;-93
2023/02/04 13:33:58;;;;;;;7.35;2.22;;;;;;;;;;6167860;23;20022;-91
2023/02/04 13:39:31;;;;;;;5.85;2.53;;;;;;;;;;6144197;23;20020;-91
2023/02/04 13:44:42;;;;;;;3.22;1.88;;;;;;;;;;6164069;23;20021;-92
2023/02/04 13:47:09;;;;;;;11.40;2.88;;;;;;;;;;6167894;23;20023;-90
2023/02/04 13:49:37;;;;;;;4.90;2.75;;;;;;;;;;6174574;23;20227;-91
2023/02/04 13:52:05;;;;;;;8.15;3.80;;;;;;;;;;6172028;23;20036;-90
2023/02/04 13:54:40;;;;;;;7.53;4.57;;;;;;;;;;6172803;23;20359;-92
2023/02/04 13:57:11;;;;;;;12.70;3.83;;;;;;;;;;6198212;23;20027;-91
2023/02/04 13:59:38;;;;;;;8.85;3.67;;;;;;;;;;6170228;23;20028;-92
2023/02/04 14:02:07;;;;;;;6.65;3.65;;;;;;;;;;6170313;23;20016;-91
2023/02/04 14:04:35;;;;;;;6.80;2.70;;;;;;;;;;6168725;23;20070;-93
2023/02/04 14:07:04;;;;;;;7.57;2.17;;;;;;;;;;6161715;23;20031;-92
2023/02/04 14:12:17;;;;;;;7.75;2.42;;;;;;;;;;6189273;23;20052;-93
2023/02/04 14:14:46;;;;;;;6.10;3.28;;;;;;;;;;6214978;23;20029;-92
2023/02/04 14:17:23;;;;;;;3.97;2.95;;;;;;;;;;6181575;23;20013;-91
2023/02/04 14:20:01;;;;;;;10.50;2.63;;;;;;;;;;6210040;23;20025;-92
2023/02/04 14:22:33;;;;;;;5.55;2.95;;;;;;;;;;6182066;23;20383;-93
2023/02/04 14:25:01;;;;;;;5.63;2.22;;;;;;;;;;6169229;23;20031;-92
2023/02/04 14:27:39;;;;;;;7.22;3.08;;;;;;;;;;6186548;23;20471;-90
2023/02/04 14:30:08;;;;;;;4.55;1.88;;;;;;;;;;6161737;23;20016;-91
2023/02/04 14:32:36;;;;;;;7.85;2.72;;;;;;;;;;6162054;23;20036;-90
2023/02/04 14:35:05;;;;;;;6.25;2.67;;;;;;;;;;6160944;23;20016;-91
2023/02/04 14:37:33;;;;;;;6.50;2.08;;;;;;;;;;6136414;23;20021;-92
2023/02/04 14:40:07;;;;;;;3.40;2.38;;;;;;;;;;6164114;23;20020;-91
2023/02/04 14:42:40;;;;;;;6.43;2.80;;;;;;;;;;6160121;23;20021;-91
2023/02/04 14:45:16;;;;;;;13.00;3.35;;;;;;;;;;6159416;23;20020;-92
2023/02/04 14:47:43;;;;;;;8.73;2.90;;;;;;;;;;6186297;23;20017;-92
2023/02/04 14:50:13;;;;;;;5.07;3.33;;;;;;;;;;6159394;23;20016;-92
2023/02/04 14:52:42;;;;;;;6.70;2.42;;;;;;;;;;6162580;23;20482;-93
2023/02/04 14:55:10;;;;;;;5.43;3.63;;;;;;;;;;6184151;23;20027;-92
2023/02/04 14:57:39;;;;;;;7.50;2.35;;;;;;;;;;6186886;23;20355;-92
2023/02/04 15:00:11;;;;;;;7.50;2.92;;;;;;;;;;6164699;23;20024;-91
2023/02/04 15:02:40;;;;;;;5.68;2.50;;;;;;;;;;6170240;23;20021;-92
2023/02/04 15:05:08;;;;;;;9.93;2.35;;;;;;;;;;6170830;23;20023;-93
2023/02/04 15:07:36;;;;;;;7.55;2.83;;;;;;;;;;6171874;23;20036;-92
2023/02/04 15:10:04;;;;;;;12.73;2.80;;;;;;;;;;6172616;23;20020;-91
2023/02/04 15:12:55;;;;;;;5.38;1.90;;;;;;;;;;6167763;23;20017;-92
2023/02/04 15:15:25;;;;;;;7.15;3.10;;;;;;;;;;6186141;23;20023;-92
2023/02/04 15:17:54;;;;;;;6.50;2.72;;;;;;;;;;6160837;23;20017;-91
2023/02/04 15:20:25;;;;;;;6.72;3.28;;;;;;;;;;6160598;23;20028;-92
2023/02/04 15:22:55;;;;;;;5.57;2.47;;;;;;;;;;6161170;23;20019;-91
2023/02/04 15:25:23;;;;;;;3.95;2.72;;;;;;;;;;6161459;23;20024;-92
2023/02/04 15:27:54;;;;;;;3.25;2.40;;;;;;;;;;6132041;23;20029;-92
2023/02/04 15:30:22;;;;;;;6.13;2.90;;;;;;;;;;6180992;23;20017;-92
2023/02/04 15:32:50;;;;;;;6.93;3.55;;;;;;;;;;6131500;23;20013;-90
2023/02/04 15:35:20;;;;;;;12.70;3.25;;;;;;;;;;6131046;23;20017;-90
2023/02/04 15:37:48;;;;;;;5.82;2.70;;;;;;;;;;6156750;23;20023;-91
2023/02/04 15:40:18;;;;;;;5.28;2.95;;;;;;;;;;6155354;23;20017;-90
2023/02/04 15:42:46;;;;;;;6.50;4.72;;;;;;;;;;6157389;23;20025;-91
2023/02/04 15:45:16;;;;;;;3.40;2.05;;;;;;;;;;6156115;23;20040;-91
2023/02/04 15:47:44;;;;;;;7.25;4.72;;;;;;;;;;6157026;23;20013;-91
2023/02/04 15:50:13;;;;;;;6.63;3.72;;;;;;;;;;6130418;23;20017;-92
2023/02/04 15:52:43;;;;;;;7.93;4.00;;;;;;;;;;6132485;23;20036;-91
2023/02/04 15:55:12;;;;;;;10.73;3.75;;;;;;;;;;6130717;23;20032;-91
2023/02/04 15:57:40;;;;;;;7.32;3.35;;;;;;;;;;6133694;23;20547;-91
2023/02/04 16:00:09;;;;;;;4.70;2.85;;;;;;;;;;6132557;23;20032;-92
2023/02/04 16:02:38;;;;;;;5.30;3.20;;;;;;;;;;6158586;23;20480;-91
2023/02/04 16:05:09;;;;;;;6.43;3.00;;;;;;;;;;6132733;23;20518;-91
2023/02/04 16:07:39;;;;;;;6.82;3.08;;;;;;;;;;6132913;23;20025;-91
2023/02/04 16:10:08;;;;;;;4.88;3.08;;;;;;;;;;6156467;23;20021;-91
2023/02/04 16:12:35;;;;;;;4.50;2.95;;;;;;;;;;6132484;23;20043;-90
2023/02/04 16:15:03;;;;;;;8.98;2.92;;;;;;;;;;6156741;23;20502;-90
2023/02/04 16:17:31;;;;;;;4.68;2.92;;;;;;;;;;6150488;23;20017;-89
2023/02/04 16:20:00;;;;;;;7.28;2.10;;;;;;;;;;6157108;23;20024;-89
2023/02/04 16:22:28;;;;;;;5.35;3.50;;;;;;;;;;6160153;23;20051;-89
2023/02/04 16:24:56;;;;;;;6.20;3.65;;;;;;;;;;6158637;23;20048;-89
2023/02/04 16:27:26;;;;;;;6.18;3.42;;;;;;;;;;6160482;23;20035;-91
2023/02/04 16:29:54;;;;;;;7.65;3.47;;;;;;;;;;6162714;23;20019;-89